Time;durP1;ratioP1;P1;durP2;ratioP2;P2;SDS_P1;SDS_P2;PMS_P1;PMS_P2;Temp;Humidity;BMP_temperature;BMP_pressure;BME280_temperature;BME280_humidity;BME280_pressure;Samples;Min_cycle;Max_cycle;Signal;HPM_P1;HPM_P2
2022/04/03 00:01:35;;;;;;;8.50;4.53;;;;;;;10.19;100.00;98521.66;1713944;82;21199;-77
2022/04/03 00:04:40;;;;;;;11.40;4.42;;;;;;;10.21;100.00;98520.09;1713800;84;21176;-77
2022/04/03 00:07:46;;;;;;;5.87;3.92;;;;;;;10.24;100.00;98529.23;1713870;82;21200;-83
2022/04/03 00:10:52;;;;;;;6.17;4.12;;;;;;;10.26;100.00;98535.34;1713936;84;21168;-77
2022/04/03 00:13:57;;;;;;;4.87;3.65;;;;;;;10.25;100.00;98530.91;1713977;84;21729;-82
2022/04/03 00:17:04;;;;;;;4.33;3.42;;;;;;;10.19;100.00;98530.38;1713999;82;21200;-83
2022/04/03 00:20:11;;;;;;;6.15;3.35;;;;;;;10.11;100.00;98531.45;1713832;84;21749;-83
2022/04/03 00:23:16;;;;;;;3.70;3.35;;;;;;;10.07;99.15;98526.64;1713909;82;21211;-83
2022/04/03 00:26:23;;;;;;;3.90;3.37;;;;;;;10.02;98.25;98519.12;1713820;82;21196;-77
2022/04/03 00:29:28;;;;;;;3.92;3.15;;;;;;;9.97;96.83;98515.67;1713949;84;21736;-78
2022/04/03 00:32:34;;;;;;;4.70;3.65;;;;;;;9.87;95.78;98504.34;1713913;82;21487;-77
2022/04/03 00:35:39;;;;;;;5.28;2.83;;;;;;;9.80;95.45;98494.52;1718653;81;21199;-83
2022/04/03 00:38:45;;;;;;;4.45;3.65;;;;;;;9.74;95.34;98485.30;1734059;83;21152;-77
2022/04/03 00:41:51;;;;;;;4.12;3.35;;;;;;;9.69;95.14;98480.48;1733993;81;21763;-77
2022/04/03 00:44:57;;;;;;;7.00;3.47;;;;;;;9.64;95.01;98498.01;1734021;83;21167;-83
2022/04/03 00:48:03;;;;;;;4.40;3.52;;;;;;;9.62;94.92;98504.75;1733962;81;21230;-77
2022/04/03 00:51:11;;;;;;;4.58;3.33;;;;;;;9.58;94.91;98511.69;1734128;83;21171;-77
2022/04/03 00:54:17;;;;;;;4.08;3.45;;;;;;;9.54;94.98;98512.63;1733965;83;21206;-81
2022/04/03 00:57:22;;;;;;;4.05;3.10;;;;;;;9.52;95.05;98509.30;1734013;81;21206;-83
2022/04/03 01:00:27;;;;;;;4.37;3.47;;;;;;;9.51;95.17;98513.61;1734037;83;21170;-77
2022/04/03 01:03:33;;;;;;;4.53;3.45;;;;;;;9.47;95.10;98520.84;1734091;81;21246;-83
2022/04/03 01:06:39;;;;;;;4.72;3.87;;;;;;;9.41;95.02;98514.88;1734050;81;21242;-77
2022/04/03 01:09:46;;;;;;;4.20;3.45;;;;;;;9.40;95.36;98510.45;1734020;83;21191;-77
2022/04/03 01:12:46;;;;;;;4.55;3.67;;;;;;;9.39;95.64;98507.42;1732625;81;21210;-77
2022/04/03 01:15:37;;;;;;;6.85;4.30;;;;;;;9.39;95.57;98502.48;1733872;83;21218;-82
2022/04/03 01:18:45;;;;;;;4.65;4.03;;;;;;;9.38;95.41;98509.84;1734069;83;21179;-81
2022/04/03 01:21:51;;;;;;;3.90;3.40;;;;;;;9.39;95.21;98510.14;1732526;81;21218;-77
2022/04/03 01:25:04;;;;;;;4.40;3.90;;;;;;;9.40;95.16;98517.27;1734039;83;21226;-77
2022/04/03 01:28:10;;;;;;;4.65;3.85;;;;;;;9.38;95.11;98511.73;1734090;81;21211;-83
2022/04/03 01:31:17;;;;;;;5.20;4.00;;;;;;;9.36;95.29;98509.23;1733959;81;21167;-83
2022/04/03 01:34:23;;;;;;;4.80;4.30;;;;;;;9.35;95.51;98512.14;1733974;83;21775;-83
2022/04/03 01:37:28;;;;;;;6.70;4.35;;;;;;;9.34;95.44;98524.12;1733285;81;21214;-77
2022/04/03 01:40:35;;;;;;;5.40;3.42;;;;;;;9.33;95.57;98520.55;1733971;83;21151;-77
2022/04/03 01:43:40;;;;;;;4.62;3.80;;;;;;;9.35;95.86;98520.33;1734075;81;21160;-77
2022/04/03 01:46:46;;;;;;;4.50;3.62;;;;;;;9.31;95.81;98517.18;1733941;81;21210;-83
2022/04/03 01:49:54;;;;;;;4.58;3.95;;;;;;;9.26;95.85;98515.61;1733988;83;21171;-77
2022/04/03 01:52:59;;;;;;;5.25;3.80;;;;;;;9.22;96.03;98511.62;1733974;81;21221;-83
2022/04/03 01:56:09;;;;;;;5.40;4.50;;;;;;;9.17;96.17;98516.88;1734094;83;21207;-77
2022/04/03 01:59:17;;;;;;;5.90;4.10;;;;;;;9.18;96.43;98515.86;1733984;83;21219;-83
2022/04/03 02:02:23;;;;;;;4.50;3.75;;;;;;;9.15;96.52;98518.47;1734052;81;21207;-78
2022/04/03 02:05:28;;;;;;;5.62;4.00;;;;;;;9.13;96.62;98529.29;1733865;83;21208;-82
2022/04/03 02:08:34;;;;;;;4.15;3.60;;;;;;;9.12;96.85;98533.04;1734047;81;21214;-83
2022/04/03 02:11:36;;;;;;;5.65;4.45;;;;;;;9.13;97.17;98534.74;1732509;81;21802;-77
2022/04/03 02:14:42;;;;;;;4.70;4.10;;;;;;;9.12;97.30;98530.31;1734175;83;21203;-83
2022/04/03 02:17:48;;;;;;;5.83;4.28;;;;;;;9.10;97.61;98529.17;1734027;81;21236;-77
2022/04/03 02:20:55;;;;;;;6.55;4.55;;;;;;;9.09;97.77;98530.22;1733893;83;21198;-77
2022/04/03 02:24:00;;;;;;;6.72;4.60;;;;;;;9.07;97.89;98536.39;1734001;81;21163;-83
2022/04/03 02:27:07;;;;;;;5.78;4.80;;;;;;;9.06;98.01;98534.72;1733906;81;21788;-77
2022/04/03 02:30:17;;;;;;;6.58;5.10;;;;;;;9.06;97.94;98537.98;1733916;83;21179;-82
2022/04/03 02:33:23;;;;;;;5.85;4.42;;;;;;;9.04;97.76;98535.47;1733914;81;21208;-83
2022/04/03 02:36:28;;;;;;;5.83;4.35;;;;;;;9.01;97.54;98529.59;1733410;81;21242;-77
2022/04/03 02:39:33;;;;;;;6.20;4.33;;;;;;;8.94;97.22;98531.80;1729546;82;21254;-77
2022/04/03 02:42:38;;;;;;;6.25;4.75;;;;;;;8.87;96.68;98525.48;1727396;81;21178;-83
2022/04/03 02:45:43;;;;;;;4.40;4.00;;;;;;;8.82;96.48;98524.44;1734071;83;21219;-77
2022/04/03 02:48:50;;;;;;;6.30;4.80;;;;;;;8.79;96.47;98522.13;1733970;83;21215;-77
2022/04/03 02:51:55;;;;;;;6.42;4.70;;;;;;;8.80;96.60;98532.84;1733982;81;21204;-83
2022/04/03 02:55:01;;;;;;;7.35;4.65;;;;;;;8.81;96.73;98541.33;1733977;83;21226;-77
2022/04/03 02:58:06;;;;;;;5.67;4.42;;;;;;;8.80;96.70;98547.83;1734025;81;21798;-82
2022/04/03 03:01:12;;;;;;;6.47;4.83;;;;;;;8.80;96.83;98545.60;1734122;83;21155;-78
2022/04/03 03:04:18;;;;;;;5.62;4.45;;;;;;;8.80;96.78;98541.02;1734079;83;21728;-82
2022/04/03 03:07:24;;;;;;;7.08;5.10;;;;;;;8.80;96.75;98542.38;1734012;81;21183;-83
2022/04/03 03:10:31;;;;;;;5.62;4.70;;;;;;;8.80;96.85;98532.84;1734144;83;21160;-76
2022/04/03 03:13:36;;;;;;;5.10;4.08;;;;;;;8.80;96.80;98533.33;1733999;81;21779;-83
2022/04/03 03:16:42;;;;;;;5.35;4.40;;;;;;;8.81;96.73;98529.59;1733927;81;21171;-82
2022/04/03 03:19:47;;;;;;;7.25;4.90;;;;;;;8.78;96.66;98524.02;1734066;83;21171;-77
2022/04/03 03:22:54;;;;;;;5.37;4.72;;;;;;;8.77;96.75;98529.16;1733973;81;21171;-83
2022/04/03 03:26:00;;;;;;;6.75;5.17;;;;;;;8.77;96.85;98531.88;1734102;83;21839;-82
2022/04/03 03:29:05;;;;;;;7.37;5.00;;;;;;;8.79;97.08;98527.57;1734185;83;21740;-82
2022/04/03 03:32:11;;;;;;;6.40;4.75;;;;;;;8.80;97.12;98527.39;1734084;81;21775;-77
2022/04/03 03:35:16;;;;;;;5.92;4.55;;;;;;;8.82;97.08;98523.08;1734071;83;21748;-77
2022/04/03 03:38:22;;;;;;;7.33;5.15;;;;;;;8.80;97.01;98519.20;1734015;81;21195;-83
2022/04/03 03:41:27;;;;;;;7.12;4.87;;;;;;;8.79;97.02;98515.30;1734055;81;21152;-77
2022/04/03 03:44:33;;;;;;;5.85;4.85;;;;;;;8.79;97.12;98516.67;1717616;82;21214;-83
2022/04/03 03:47:38;;;;;;;6.62;5.55;;;;;;;8.77;97.19;98512.80;1715932;82;21219;-77
2022/04/03 03:50:44;;;;;;;7.05;5.37;;;;;;;8.76;97.50;98509.77;1715936;83;21175;-77
2022/04/03 03:53:49;;;;;;;6.47;4.83;;;;;;;8.76;97.69;98502.95;1715751;83;21234;-77
2022/04/03 03:56:55;;;;;;;7.00;5.08;;;;;;;8.78;97.44;98498.11;1714527;82;21214;-83
2022/04/03 04:00:00;;;;;;;6.25;4.83;;;;;;;8.80;97.10;98500.13;1714586;83;21175;-77
2022/04/03 04:03:06;;;;;;;7.87;5.35;;;;;;;8.84;96.96;98498.63;1715915;82;21771;-82
2022/04/03 04:06:11;;;;;;;6.30;5.00;;;;;;;8.88;96.64;98501.78;1716056;83;21171;-77
2022/04/03 04:09:18;;;;;;;5.80;4.60;;;;;;;8.93;96.34;98497.38;1715694;83;21831;-77
2022/04/03 04:12:23;;;;;;;6.05;4.92;;;;;;;8.96;95.95;98488.78;1716047;82;21199;-78
2022/04/03 04:15:30;;;;;;;5.92;4.87;;;;;;;9.00;95.33;98491.11;1716027;83;21167;-83
2022/04/03 04:18:36;;;;;;;6.92;5.80;;;;;;;9.02;95.22;98497.17;1714663;82;21210;-77
2022/04/03 04:21:41;;;;;;;6.95;5.05;;;;;;;9.03;94.97;98499.68;1715967;82;21234;-83
2022/04/03 04:24:47;;;;;;;6.95;5.58;;;;;;;9.02;94.59;98505.35;1715975;83;21176;-81
2022/04/03 04:27:54;;;;;;;6.12;4.78;;;;;;;9.00;94.50;98511.03;1715100;82;21214;-77
2022/04/03 04:30:59;;;;;;;6.58;5.30;;;;;;;9.00;94.24;98516.48;1715982;83;21155;-78
2022/04/03 04:34:07;;;;;;;6.97;4.75;;;;;;;8.99;94.22;98512.58;1715933;83;21211;-78
2022/04/03 04:37:13;;;;;;;5.60;4.60;;;;;;;8.97;94.30;98512.80;1715489;82;21783;-82
2022/04/03 04:40:19;;;;;;;7.62;5.72;;;;;;;8.93;94.00;98519.19;1716167;83;21170;-78
2022/04/03 04:43:24;;;;;;;7.87;5.62;;;;;;;8.92;94.59;98523.50;1715981;82;21206;-82
2022/04/03 04:46:32;;;;;;;8.35;7.00;;;;;;;8.93;94.83;98521.91;1716217;82;21178;-83
2022/04/03 04:49:37;;;;;;;10.13;6.08;;;;;;;8.90;94.76;98514.70;1716179;83;21773;-77
2022/04/03 04:52:46;;;;;;;10.72;6.58;;;;;;;8.87;95.17;98509.13;1716254;82;21768;-77
2022/04/03 04:55:51;;;;;;;9.23;6.10;;;;;;;8.90;95.46;98501.91;1716238;83;21226;-78
2022/04/03 04:58:57;;;;;;;7.62;6.22;;;;;;;8.96;95.68;98496.13;1716175;83;21163;-77
2022/04/03 05:02:05;;;;;;;7.67;5.47;;;;;;;9.02;95.67;98495.81;1716174;82;21265;-77
2022/04/03 05:05:10;;;;;;;10.08;5.72;;;;;;;9.11;95.28;98492.66;1716363;83;21218;-82
2022/04/03 05:08:17;;;;;;;6.92;5.25;;;;;;;9.18;93.93;98494.03;1716161;82;21229;-77
2022/04/03 05:11:21;;;;;;;5.67;4.62;;;;;;;9.30;92.85;98500.50;1716154;82;21727;-77
2022/04/03 05:14:26;;;;;;;5.47;4.33;;;;;;;9.39;90.98;98508.78;1716209;83;21163;-77
2022/04/03 05:17:32;;;;;;;5.80;4.53;;;;;;;9.44;88.55;98510.34;1716147;82;21199;-76
2022/04/03 05:20:39;;;;;;;5.03;4.30;;;;;;;9.50;86.86;98513.27;1716205;83;21162;-77
2022/04/03 05:23:45;;;;;;;5.37;4.65;;;;;;;9.50;85.02;98514.63;1716103;83;21238;-78
2022/04/03 05:26:52;;;;;;;8.03;5.08;;;;;;;9.46;83.66;98515.61;1714789;82;21253;-83
2022/04/03 05:29:58;;;;;;;7.35;5.28;;;;;;;9.37;82.26;98516.36;1716190;83;21731;-82
2022/04/03 05:33:04;;;;;;;7.20;5.08;;;;;;;9.35;81.59;98511.62;1716255;82;21187;-83
2022/04/03 05:36:10;;;;;;;5.83;4.47;;;;;;;9.33;81.71;98513.73;1716191;83;21222;-82
2022/04/03 05:39:15;;;;;;;6.37;4.53;;;;;;;9.34;82.41;98512.67;1716212;83;21202;-83
2022/04/03 05:42:21;;;;;;;7.17;5.53;;;;;;;9.34;82.28;98515.41;1716202;82;21249;-77
2022/04/03 05:45:28;;;;;;;9.50;6.03;;;;;;;9.36;81.87;98525.59;1721525;82;21559;-83
2022/04/03 05:48:34;;;;;;;8.10;5.37;;;;;;;9.34;81.45;98524.95;1733986;81;21242;-77
2022/04/03 05:51:40;;;;;;;6.65;4.90;;;;;;;9.31;81.62;98531.34;1733997;81;21234;-83
2022/04/03 05:54:46;;;;;;;7.67;4.90;;;;;;;9.28;81.75;98529.91;1733957;83;21755;-77
2022/04/03 05:57:51;;;;;;;6.17;4.70;;;;;;;9.28;81.74;98528.53;1733927;81;21199;-77
2022/04/03 06:00:56;;;;;;;5.78;4.40;;;;;;;9.29;81.83;98537.03;1734011;83;21187;-77
2022/04/03 06:04:01;;;;;;;5.33;4.33;;;;;;;9.33;81.82;98532.00;1733979;83;21167;-83
2022/04/03 06:07:07;;;;;;;6.70;4.97;;;;;;;9.38;81.41;98531.67;1733946;81;21206;-83
2022/04/03 06:10:14;;;;;;;5.37;4.20;;;;;;;9.40;81.24;98535.54;1733886;83;21226;-82
2022/04/03 06:13:22;;;;;;;6.78;4.35;;;;;;;9.38;81.35;98534.92;1733945;81;21788;-83
2022/04/03 06:16:27;;;;;;;7.08;4.12;;;;;;;9.37;81.61;98533.25;1734065;81;21159;-82
2022/04/03 06:19:32;;;;;;;5.00;3.83;;;;;;;9.44;81.51;98534.91;1734137;83;21805;-83
2022/04/03 06:22:37;;;;;;;6.55;4.30;;;;;;;9.53;81.23;98549.70;1734025;81;21202;-82
2022/04/03 06:25:43;;;;;;;6.50;4.37;;;;;;;9.53;80.58;98548.34;1734004;83;21198;-77
2022/04/03 06:28:48;;;;;;;6.47;4.60;;;;;;;9.56;80.04;98542.47;1734035;83;21171;-83
2022/04/03 06:31:56;;;;;;;6.37;4.67;;;;;;;9.63;79.73;98549.56;1734031;81;21186;-77
2022/04/03 06:35:01;;;;;;;8.48;4.92;;;;;;;9.73;79.28;98553.22;1734047;83;21171;-77
2022/04/03 06:38:06;;;;;;;7.95;5.55;;;;;;;9.80;78.97;98555.42;1734058;81;21194;-83
2022/04/03 06:41:13;;;;;;;10.43;6.83;;;;;;;9.82;78.62;98552.47;1733974;83;21329;-77
2022/04/03 06:44:19;;;;;;;7.42;5.15;;;;;;;9.85;78.43;98550.69;1734162;83;21171;-82
2022/04/03 06:47:24;;;;;;;10.98;6.62;;;;;;;9.89;78.48;98545.95;1722526;82;21466;-82
2022/04/03 06:50:30;;;;;;;8.00;6.10;;;;;;;9.94;78.22;98537.95;1716284;83;21182;-77
2022/04/03 06:53:35;;;;;;;6.83;4.65;;;;;;;9.99;78.18;98546.33;1716141;82;21775;-77
2022/04/03 06:56:41;;;;;;;6.05;4.40;;;;;;;10.02;77.74;98549.67;1716254;82;21207;-83
2022/04/03 06:59:47;;;;;;;5.87;4.87;;;;;;;9.98;77.70;98546.03;1716302;83;21205;-77
2022/04/03 07:02:53;;;;;;;6.25;4.42;;;;;;;9.93;77.45;98538.17;1716297;82;21191;-83
2022/04/03 07:05:59;;;;;;;6.20;4.95;;;;;;;9.91;77.39;98534.27;1714754;82;21179;-83
2022/04/03 07:09:05;;;;;;;8.73;4.50;;;;;;;9.95;77.38;98542.34;1716211;83;21839;-83
2022/04/03 07:12:12;;;;;;;7.35;4.37;;;;;;;9.98;77.34;98552.85;1716104;82;21186;-77
2022/04/03 07:15:18;;;;;;;7.75;5.40;;;;;;;10.02;77.12;98549.67;1714852;82;21217;-77
2022/04/03 07:18:23;;;;;;;5.50;4.35;;;;;;;9.98;76.88;98543.30;1716184;82;21226;-83
2022/04/03 07:21:29;;;;;;;7.55;4.90;;;;;;;9.99;76.85;98531.31;1714958;82;21700;-83
2022/04/03 07:24:36;;;;;;;10.10;5.70;;;;;;;9.97;76.93;98530.70;1716254;83;21782;-83
2022/04/03 07:27:42;;;;;;;6.70;4.90;;;;;;;9.98;76.89;98519.24;1716064;82;21209;-77
2022/04/03 07:30:48;;;;;;;6.95;4.87;;;;;;;10.09;77.13;98508.16;1716228;83;21151;-83
2022/04/03 07:33:55;;;;;;;6.70;5.65;;;;;;;10.12;76.61;98511.30;1716230;83;21159;-77
2022/04/03 07:37:02;;;;;;;6.75;5.15;;;;;;;10.09;76.56;98517.72;1716244;82;21171;-83
2022/04/03 07:40:08;;;;;;;5.35;4.70;;;;;;;10.03;76.68;98528.16;1716402;83;21247;-83
2022/04/03 07:43:16;;;;;;;7.08;4.72;;;;;;;10.02;76.85;98520.99;1716217;82;21854;-83
2022/04/03 07:46:22;;;;;;;6.30;5.05;;;;;;;10.04;76.66;98512.07;1716250;82;21170;-77
2022/04/03 07:49:28;;;;;;;7.35;4.97;;;;;;;10.10;76.59;98502.47;1733906;82;21206;-77
2022/04/03 07:52:32;;;;;;;7.30;5.53;;;;;;;10.15;76.41;98497.72;1734204;81;21222;-76
2022/04/03 07:55:37;;;;;;;7.10;5.60;;;;;;;10.10;76.44;98499.73;1733993;83;21198;-77
2022/04/03 07:58:43;;;;;;;7.60;5.20;;;;;;;10.08;76.22;98510.59;1734130;83;21206;-77
2022/04/03 08:01:48;;;;;;;9.38;5.58;;;;;;;10.04;76.50;98503.34;1734021;81;21203;-77
2022/04/03 08:04:55;;;;;;;7.83;5.15;;;;;;;10.01;76.61;98501.56;1734071;83;21203;-76
2022/04/03 08:08:00;;;;;;;6.60;5.28;;;;;;;9.96;77.27;98504.42;1734059;81;21206;-82
2022/04/03 08:11:08;;;;;;;8.05;5.40;;;;;;;9.86;77.36;98504.04;1734016;81;21179;-77
2022/04/03 08:14:14;;;;;;;10.53;5.80;;;;;;;9.79;78.22;98505.14;1733970;83;21170;-83
2022/04/03 08:17:23;;;;;;;7.50;5.42;;;;;;;9.68;79.04;98508.81;1734003;81;21246;-85
2022/04/03 08:20:28;;;;;;;11.78;6.58;;;;;;;9.53;80.00;98520.52;1733988;83;21179;-84
2022/04/03 08:27:10;;;;;;;20.40;10.30;;;;;;;9.21;82.99;98533.98;1733952;81;21203;-84
2022/04/03 08:30:20;;;;;;;18.37;8.75;;;;;;;9.10;84.54;98547.42;1734041;83;21167;-77
2022/04/03 08:33:26;;;;;;;11.50;6.30;;;;;;;9.04;85.67;98545.55;1719137;82;21183;-85
2022/04/03 08:36:35;;;;;;;9.08;5.30;;;;;;;9.02;86.90;98533.46;1734139;81;21215;-84
2022/04/03 08:43:15;;;;;;;9.63;5.87;;;;;;;8.81;89.79;98464.16;1733924;81;21784;-75
2022/04/03 08:46:20;;;;;;;11.53;6.70;;;;;;;8.70;92.08;98477.86;1733975;81;21696;-84
2022/04/03 08:49:27;;;;;;;14.18;7.60;;;;;;;8.66;93.17;98490.26;1733152;83;21771;-84
2022/04/03 08:52:36;;;;;;;16.07;7.55;;;;;;;8.70;93.75;98489.63;1718209;82;21239;-83
2022/04/03 08:55:42;;;;;;;12.37;7.42;;;;;;;8.79;93.71;98490.24;1734034;83;21171;-83
2022/04/03 08:58:48;;;;;;;12.65;7.78;;;;;;;8.91;93.41;98482.30;1734029;83;21191;-75
2022/04/03 09:01:53;;;;;;;9.70;6.33;;;;;;;9.00;93.38;98485.65;1733732;81;21211;-76
2022/04/03 09:05:00;;;;;;;18.12;7.25;;;;;;;9.04;94.01;98477.36;1718380;83;21730;-76
2022/04/03 09:08:07;;;;;;;14.07;7.90;;;;;;;8.96;93.98;98465.61;1733952;81;21206;-84
2022/04/03 09:11:13;;;;;;;15.83;7.60;;;;;;;8.92;94.38;98469.80;1732545;81;21774;-76
2022/04/03 09:14:19;;;;;;;11.73;7.20;;;;;;;8.96;94.89;98474.31;1733886;83;21777;-82
2022/04/03 09:17:52;;;;;;;12.60;7.53;;;;;;;9.04;95.20;98482.30;1734028;81;21206;-75
2022/04/03 09:20:57;;;;;;;14.13;7.53;;;;;;;9.11;95.24;98482.27;1733986;83;21202;-78
2022/04/03 09:24:14;;;;;;;10.08;7.22;;;;;;;9.27;95.15;98480.98;1734020;83;21163;-84
2022/04/03 09:27:19;;;;;;;10.32;6.10;;;;;;;9.43;94.95;98479.19;1733948;81;21210;-83
2022/04/03 09:30:27;;;;;;;8.73;6.25;;;;;;;9.59;94.06;98475.98;1734060;83;21705;-84
2022/04/03 09:33:34;;;;;;;10.85;6.15;;;;;;;9.71;94.32;98472.91;1733957;81;21243;-75
2022/04/03 09:36:40;;;;;;;8.50;6.50;;;;;;;9.82;93.15;98476.84;1734124;81;21218;-76
2022/04/03 09:39:45;;;;;;;8.90;6.55;;;;;;;9.90;92.48;98475.78;1734010;83;21172;-82
2022/04/03 09:42:51;;;;;;;10.15;6.08;;;;;;;9.97;91.93;98488.86;1733917;81;21213;-75
2022/04/03 09:46:05;;;;;;;10.82;6.97;;;;;;;9.97;90.88;98492.46;1733991;83;21171;-77
2022/04/03 09:49:13;;;;;;;8.80;6.53;;;;;;;9.98;90.32;98495.50;1733985;82;21218;-75
2022/04/03 09:52:12;;;;;;;10.50;6.58;;;;;;;9.99;89.83;98503.99;1733466;81;21246;-83
2022/04/03 09:55:04;;;;;;;12.58;6.53;;;;;;;9.91;88.87;98503.39;1733941;83;21151;-83
2022/04/03 09:58:06;;;;;;;11.55;7.28;;;;;;;9.83;89.17;98514.02;1733872;81;21194;-76
2022/04/03 10:01:00;;;;;;;12.50;7.55;;;;;;;9.77;89.59;98516.78;1733950;83;21788;-75
2022/04/03 10:03:48;;;;;;;12.05;7.05;;;;;;;9.73;90.37;98522.66;1734016;83;22191;-76
2022/04/03 10:06:41;;;;;;;12.90;6.97;;;;;;;9.72;91.00;98530.55;1734005;81;21206;-75
2022/04/03 10:09:49;;;;;;;14.50;8.50;;;;;;;9.63;91.34;98531.83;1733999;83;21767;-84
2022/04/03 10:12:55;;;;;;;14.18;8.25;;;;;;;9.52;91.37;98537.11;1733053;81;21230;-84
2022/04/03 10:16:00;;;;;;;16.90;8.55;;;;;;;9.48;92.03;98530.70;1733978;83;21736;-84
2022/04/03 10:19:06;;;;;;;14.58;9.18;;;;;;;9.50;92.21;98525.02;1733976;83;21160;-76
2022/04/03 10:22:15;;;;;;;12.53;7.55;;;;;;;9.48;92.77;98529.87;1733479;81;21218;-75
2022/04/03 10:25:27;;;;;;;12.90;6.70;;;;;;;9.45;92.88;98529.75;1734099;83;21175;-77
2022/04/03 10:28:35;;;;;;;7.95;4.60;;;;;;;9.38;92.91;98528.10;1733871;81;21202;-86
2022/04/03 10:31:41;;;;;;;5.87;4.10;;;;;;;9.24;93.59;98525.91;1733873;81;21247;-76
2022/04/03 10:34:54;;;;;;;7.95;5.37;;;;;;;9.12;94.00;98521.60;1734109;83;21159;-76
2022/04/03 10:38:11;;;;;;;7.28;5.42;;;;;;;9.04;95.00;98507.36;1734071;81;21186;-76
2022/04/03 10:41:35;;;;;;;6.80;5.03;;;;;;;9.04;96.26;98504.11;1733947;81;21174;-85
2022/04/03 10:44:40;;;;;;;7.17;5.30;;;;;;;9.21;97.63;98507.23;1733856;83;21179;-76
2022/04/03 10:47:50;;;;;;;5.47;4.87;;;;;;;9.38;97.86;98492.63;1733906;81;21242;-84
2022/04/03 10:51:05;;;;;;;6.25;5.10;;;;;;;9.50;97.74;98510.55;1732569;82;21766;-83
2022/04/03 10:54:09;;;;;;;8.08;5.55;;;;;;;9.52;98.32;98515.28;1733986;83;21203;-76
2022/04/03 10:57:54;;;;;;;6.05;4.90;;;;;;;9.61;98.71;98509.38;1734001;81;21207;-76
2022/04/03 11:00:59;;;;;;;6.33;5.45;;;;;;;9.73;98.44;98498.09;1734015;83;21190;-83
2022/04/03 11:04:18;;;;;;;7.25;4.37;;;;;;;9.86;97.31;98502.67;1734016;83;21198;-84
2022/04/03 11:07:22;;;;;;;6.20;4.83;;;;;;;9.84;96.45;98504.80;1733996;81;21215;-83
2022/04/03 11:10:55;;;;;;;8.25;6.00;;;;;;;9.76;95.42;98511.02;1733996;83;21164;-83
2022/04/03 11:14:01;;;;;;;7.87;5.70;;;;;;;9.66;95.66;98508.73;1732541;83;21178;-75
2022/04/03 11:17:07;;;;;;;9.15;7.15;;;;;;;9.55;95.26;98497.95;1732599;81;21245;-75
2022/04/03 11:20:14;;;;;;;10.70;6.95;;;;;;;9.50;94.27;98500.98;1734182;83;21164;-83
2022/04/03 11:23:21;;;;;;;8.18;7.30;;;;;;;9.46;94.79;98510.98;1734001;81;21199;-82
2022/04/03 11:26:27;;;;;;;7.92;6.28;;;;;;;9.45;94.07;98514.74;1718505;81;21144;-82
2022/04/03 11:29:35;;;;;;;7.05;5.42;;;;;;;9.42;93.60;98512.98;1734022;83;21147;-75
2022/04/03 11:32:40;;;;;;;8.58;5.85;;;;;;;9.31;92.67;98519.91;1734093;81;21191;-75
2022/04/03 11:35:47;;;;;;;7.15;5.80;;;;;;;9.18;91.67;98513.13;1734180;83;21277;-75
2022/04/03 11:38:58;;;;;;;10.78;6.12;;;;;;;9.04;92.30;98504.64;1734059;83;21218;-79
2022/04/03 11:42:03;;;;;;;7.90;6.30;;;;;;;8.92;92.52;98513.43;1734129;81;21215;-82
2022/04/03 11:45:14;;;;;;;12.55;7.53;;;;;;;8.77;93.94;98516.05;1734024;83;21238;-76
2022/04/03 11:48:28;;;;;;;11.40;7.62;;;;;;;8.60;96.42;98522.41;1734013;81;21202;-83
2022/04/03 11:51:34;;;;;;;9.38;7.33;;;;;;;8.44;98.22;98517.67;1733997;81;21247;-75
2022/04/03 11:54:42;;;;;;;10.53;6.42;;;;;;;8.27;99.67;98525.86;1734062;83;21174;-76
2022/04/03 11:57:47;;;;;;;7.87;6.25;;;;;;;8.17;100.00;98532.22;1734062;81;21250;-85
2022/04/03 12:00:55;;;;;;;9.10;7.30;;;;;;;8.08;100.00;98525.27;1734025;83;21206;-76
2022/04/03 12:04:12;;;;;;;12.00;7.55;;;;;;;7.99;100.00;98521.05;1734003;83;21195;-76
2022/04/03 12:07:19;;;;;;;8.90;7.28;;;;;;;7.92;100.00;98519.67;1733996;81;21242;-85
2022/04/03 12:10:33;;;;;;;11.15;7.67;;;;;;;7.85;100.00;98529.67;1733998;83;21230;-85
2022/04/03 12:13:36;;;;;;;11.78;8.18;;;;;;;7.76;100.00;98529.00;1734169;83;21227;-75
2022/04/03 12:16:48;;;;;;;11.30;7.87;;;;;;;7.68;100.00;98529.19;1717811;81;21210;-76
2022/04/03 12:19:55;;;;;;;13.75;8.55;;;;;;;7.62;100.00;98528.11;1734006;83;21787;-85
2022/04/03 12:23:01;;;;;;;9.35;7.30;;;;;;;7.56;100.00;98530.78;1733988;81;21223;-76
2022/04/03 12:26:08;;;;;;;11.43;7.53;;;;;;;7.50;100.00;98545.19;1734073;83;22112;-77
2022/04/03 12:29:14;;;;;;;10.38;6.58;;;;;;;7.47;100.00;98549.66;1734035;83;21779;-84
2022/04/03 12:32:22;;;;;;;11.00;8.28;;;;;;;7.45;100.00;98557.19;1733872;81;21183;-83
2022/04/03 12:35:30;;;;;;;11.05;8.40;;;;;;;7.45;100.00;98555.83;1734261;83;21168;-75
2022/04/03 12:38:40;;;;;;;10.03;7.83;;;;;;;7.45;100.00;98555.83;1733411;82;21206;-76
2022/04/03 12:41:46;;;;;;;11.25;7.97;;;;;;;7.43;100.00;98556.88;1734035;81;21207;-84
2022/04/03 12:45:09;;;;;;;10.53;7.78;;;;;;;7.40;100.00;98554.55;1733985;83;21751;-76
2022/04/03 12:48:14;;;;;;;9.63;6.97;;;;;;;7.34;100.00;98544.47;1733998;81;21250;-83
2022/04/03 12:51:20;;;;;;;12.25;8.23;;;;;;;7.26;100.00;98529.66;1734049;81;21167;-84
2022/04/03 12:54:26;;;;;;;12.37;7.97;;;;;;;7.24;100.00;98507.76;1732707;81;21210;-83
2022/04/03 13:01:18;;;;;;;18.17;9.75;;;;;;;7.25;100.00;98504.03;1733982;83;21775;-83
2022/04/03 13:04:39;;;;;;;9.15;6.45;;;;;;;7.28;100.00;98501.72;1734023;83;21195;-75
2022/04/03 13:07:45;;;;;;;10.45;7.78;;;;;;;7.34;100.00;98524.06;1733988;81;21819;-82
2022/04/03 13:11:06;;;;;;;9.25;6.42;;;;;;;7.34;100.00;98524.56;1732483;83;21222;-75
2022/04/03 13:14:37;;;;;;;10.53;3.80;;;;;;;7.36;100.00;98526.58;1734025;83;21163;-75
2022/04/03 13:17:30;;;;;;;4.28;3.05;;;;;;;7.32;99.76;98530.73;1734064;81;21198;-82
2022/04/03 13:20:36;;;;;;;4.50;3.37;;;;;;;7.27;96.28;98540.01;1734290;83;21203;-76
2022/04/03 13:23:41;;;;;;;4.85;2.90;;;;;;;7.26;95.79;98548.69;1734030;83;21314;-75
2022/04/03 13:26:48;;;;;;;6.33;3.77;;;;;;;7.25;94.74;98541.58;1733240;81;21752;-82
2022/04/03 13:29:48;;;;;;;7.37;4.70;;;;;;;7.28;95.23;98551.20;1734145;83;21700;-81
2022/04/03 13:32:54;;;;;;;8.23;5.03;;;;;;;7.31;95.49;98543.49;1733968;81;21218;-82
2022/04/03 13:36:00;;;;;;;8.90;4.95;;;;;;;7.34;96.47;98543.11;1734021;83;21716;-75
2022/04/03 13:39:07;;;;;;;6.70;5.00;;;;;;;7.38;97.99;98547.08;1734111;83;21151;-83
2022/04/03 13:42:18;;;;;;;7.28;5.10;;;;;;;7.37;98.58;98559.01;1733958;81;21345;-82
2022/04/03 13:45:56;;;;;;;7.50;5.33;;;;;;;7.33;98.59;98569.13;1734022;83;21714;-82
2022/04/03 13:48:38;;;;;;;6.33;4.53;;;;;;;7.33;99.01;98563.69;1733875;81;21183;-76
2022/04/03 13:51:43;;;;;;;5.42;4.03;;;;;;;7.36;99.37;98579.62;1734021;81;21839;-82
2022/04/03 13:54:43;;;;;;;7.08;4.72;;;;;;;7.40;100.00;98581.74;1723606;82;21234;-83
2022/04/03 13:57:49;;;;;;;5.87;4.53;;;;;;;7.46;100.00;98581.98;1714507;82;21763;-75
2022/04/03 14:00:56;;;;;;;5.55;4.00;;;;;;;7.51;100.00;98572.19;1715941;83;21175;-82
2022/04/03 14:04:03;;;;;;;4.95;3.85;;;;;;;7.56;97.23;98572.95;1715915;83;21237;-82
2022/04/03 14:07:09;;;;;;;5.30;3.70;;;;;;;7.58;96.46;98570.37;1705302;83;21267;-82
2022/04/03 14:10:15;;;;;;;4.53;3.30;;;;;;;7.68;97.63;98576.81;1715859;83;21163;-82
2022/04/03 14:13:27;;;;;;;4.85;3.33;;;;;;;7.78;96.55;98588.17;1715936;82;21210;-82
2022/04/03 14:16:32;;;;;;;3.47;2.98;;;;;;;7.85;93.45;98594.48;1715944;82;21163;-75
2022/04/03 14:19:39;;;;;;;3.42;2.47;;;;;;;7.91;94.07;98601.86;1716013;83;21207;-82
2022/04/03 14:22:45;;;;;;;3.45;2.70;;;;;;;8.00;92.88;98608.48;1715871;82;21170;-77
2022/04/03 14:25:50;;;;;;;3.15;2.00;;;;;;;7.99;93.02;98607.64;1715894;83;21665;-82
2022/04/03 14:28:49;;;;;;;2.47;2.27;;;;;;;7.91;89.07;98607.83;1715938;83;21167;-76
2022/04/03 14:31:41;;;;;;;4.28;2.65;;;;;;;7.80;88.49;98610.58;1715860;82;21182;-75
2022/04/03 14:34:47;;;;;;;2.83;1.75;;;;;;;7.72;88.97;98616.20;1716016;83;21179;-77
2022/04/03 14:37:53;;;;;;;1.95;1.72;;;;;;;7.66;89.41;98615.09;1714546;82;21762;-82
2022/04/03 14:41:00;;;;;;;2.12;1.57;;;;;;;7.62;87.65;98621.13;1715872;83;21167;-82
2022/04/03 14:44:07;;;;;;;2.25;1.70;;;;;;;7.58;87.04;98625.31;1715817;83;21202;-76
2022/04/03 14:47:13;;;;;;;2.40;1.50;;;;;;;7.56;87.13;98628.73;1715965;82;21589;-76
2022/04/03 14:50:19;;;;;;;2.22;1.50;;;;;;;7.51;87.88;98629.32;1715947;83;21768;-82
2022/04/03 14:53:25;;;;;;;1.65;1.52;;;;;;;7.47;88.37;98625.83;1714724;82;21787;-82
2022/04/03 14:56:30;;;;;;;2.25;1.22;;;;;;;7.47;88.32;98629.91;1729912;81;21238;-76